Huvudsida
METAR-TAF:

METAR-TAF

Flygplatser :

Akrotiri Airfield

Akrotiri, Cypern

latitud: 34-35N, longitud: 032-59E, höjd: 23 m

Aktuellt väderrapport

Denna rapport gjordes för 44 minuter sedan, klockan 20:50 UTC
Vind 2 kt från ost/nordost
Temperatur 24°C
Fuktighet 74%
Tryck 1005 hPa
Sikt 10 km eller mer
Inga moln under 1 500 m eller inga cumulonimbus

METAR: LCRA 162050Z 06002KT CAVOK 24/19 Q1005 NOSIG

Tid: 00:34 (21:34 UTC)

Väderprognos

Denna rapport gjordes för 8 minuter sedan, klockan 21:26 UTC
Prognos gäller från 16 kl. 21 UTC till 17 kl. 15 UTC
Vind 3 kt från ost/sydost
Sikt 10 km eller mer
Inga moln under 1 500 m eller inga cumulonimbus
Sannolikhet 30%
från 17 kl. 06 UTC till 17 kl. 09 UTC
Spridda moln på en höjd av 2000 ft
Blir
från 17 kl. 09 UTC till 17 kl. 12 UTC
Vind 18 kt från väst i byarna ända upp till 28 kt

TAF: LCRA 162126Z 1621/1715 12003KT CAVOK PROB30 1706/1709 SCT020 BECMG 1709/1712 26018G28KT

Aktuella väderrapporter och prognoser från 4000 flygplatser (METAR- och TAF-rapporter).

De tillgängliga stationerna syns som gula och röda prickar på kartan.

För musen över prickarna för att se namnen på stationerna.

Klicka sedan för att få väderrapporter och prognoser.

För att ändra kartan: Klicka på de gröna knapparna med ett svart kors på för att zooma in; den gröna knappen med ett streck på för att zooma ut; eller på de gröna pilarna för angränsande kartor.


METAR-TAF: